createdAt,value
2019-02-19T06:09:23.605Z,16.10
2019-02-19T06:11:52.897Z,16.60
2019-02-19T06:14:21.757Z,16.60
2019-02-19T06:16:58.356Z,16.70
2019-02-19T06:19:20.322Z,16.70
2019-02-19T06:21:49.513Z,16.70
2019-02-19T06:24:18.229Z,16.80
2019-02-19T06:26:47.825Z,16.80
2019-02-19T06:29:16.524Z,16.80
2019-02-19T06:31:45.634Z,16.80
2019-02-19T06:34:14.372Z,16.80
2019-02-19T06:36:42.871Z,16.90
2019-02-19T06:39:11.876Z,16.90
2019-02-19T06:41:40.592Z,16.90
2019-02-19T06:44:10.246Z,17.00
2019-02-19T06:46:39.021Z,17.00
2019-02-19T06:49:09.220Z,17.00
2019-02-19T06:51:38.112Z,17.10
2019-02-19T06:54:07.305Z,17.00
2019-02-19T06:56:36.340Z,17.10
2019-02-19T06:59:05.063Z,17.10
2019-02-19T07:02:42.544Z,17.20
2019-02-19T07:05:15.863Z,17.20
2019-02-19T07:07:45.520Z,17.20
2019-02-19T07:10:15.535Z,17.30
2019-02-19T07:12:44.236Z,17.30
2019-02-19T07:15:12.725Z,17.30
2019-02-19T07:17:41.512Z,17.40
2019-02-19T07:20:10.379Z,17.40
2019-02-19T07:22:39.617Z,17.50
2019-02-19T07:25:08.785Z,17.50
2019-02-19T07:27:37.601Z,17.60
2019-02-19T07:30:06.912Z,17.60
2019-02-19T07:32:35.653Z,17.70
2019-02-19T07:35:04.556Z,17.70
2019-02-19T07:37:33.346Z,17.70
2019-02-19T07:40:02.065Z,17.80
2019-02-19T07:42:30.928Z,17.80
2019-02-19T07:44:59.632Z,17.90
2019-02-19T07:47:28.307Z,18.10
2019-02-19T07:49:57.964Z,18.20
2019-02-19T07:54:55.111Z,18.50
2019-02-19T07:57:23.911Z,18.70
2019-02-19T07:59:53.087Z,18.80
2019-02-19T08:02:21.896Z,19.00
2019-02-19T08:04:51.047Z,19.10
2019-02-19T08:07:20.205Z,19.20
2019-02-19T08:09:51.969Z,19.30
2019-02-19T08:12:21.396Z,19.50
2019-02-19T08:14:50.212Z,19.60
2019-02-19T08:17:19.584Z,19.70
2019-02-19T08:19:49.432Z,19.80
2019-02-19T08:22:18.988Z,19.90
2019-02-19T08:24:47.991Z,20.00
2019-02-19T08:27:17.600Z,20.10
2019-02-19T08:29:47.385Z,20.10
2019-02-19T08:32:16.397Z,20.20
2019-02-19T08:34:45.597Z,20.20
2019-02-19T08:37:14.719Z,20.30
2019-02-19T08:39:43.497Z,20.40
2019-02-19T08:42:12.239Z,20.40
2019-02-19T08:44:41.287Z,20.40
2019-02-19T08:47:10.090Z,20.50
2019-02-19T08:49:39.248Z,20.50
2019-02-19T08:52:08.347Z,20.60
2019-02-19T08:54:37.524Z,20.60
2019-02-19T08:57:06.669Z,20.60
2019-02-19T08:59:37.616Z,20.60
2019-02-19T09:02:06.724Z,20.70
2019-02-19T09:04:36.464Z,20.70
2019-02-19T09:07:05.920Z,20.70
2019-02-19T09:09:36.244Z,20.70
2019-02-19T09:12:05.500Z,20.70
2019-02-19T09:14:34.670Z,20.70
2019-02-19T09:17:03.515Z,20.70
2019-02-19T09:19:32.241Z,20.70
2019-02-19T09:22:00.980Z,20.70
2019-02-19T09:24:30.108Z,20.70
2019-02-19T09:27:00.539Z,20.60
2019-02-19T09:29:29.335Z,20.60
2019-02-19T09:31:58.053Z,20.60
2019-02-19T09:34:27.477Z,20.50
2019-02-19T09:36:56.390Z,20.50
2019-02-19T09:39:25.497Z,20.40
2019-02-19T09:41:54.896Z,20.40
2019-02-19T09:44:23.651Z,20.40
2019-02-19T09:46:52.858Z,20.40
2019-02-19T09:49:22.796Z,20.30
2019-02-19T09:51:51.540Z,20.30
2019-02-19T09:54:20.649Z,20.20
2019-02-19T09:56:49.377Z,20.20
2019-02-19T09:59:18.320Z,20.20
2019-02-19T10:01:47.461Z,20.10
2019-02-19T10:04:16.992Z,20.10
2019-02-19T10:06:46.525Z,20.10
2019-02-19T10:09:15.719Z,20.00
2019-02-19T10:14:14.920Z,20.00
2019-02-19T10:16:44.084Z,19.90
2019-02-19T10:19:13.632Z,19.90
2019-02-19T10:21:42.360Z,19.90
2019-02-19T10:24:15.469Z,19.90
2019-02-19T10:26:44.395Z,19.90
2019-02-19T10:29:13.604Z,19.90
2019-02-19T10:31:44.524Z,19.80
2019-02-19T10:34:13.778Z,19.80
2019-02-19T10:36:44.306Z,19.80
2019-02-19T10:39:13.544Z,19.80
2019-02-19T10:41:42.801Z,19.80
2019-02-19T10:44:12.217Z,19.80
2019-02-19T10:46:42.056Z,19.70
2019-02-19T10:49:14.635Z,19.70
2019-02-19T10:51:43.829Z,19.80
2019-02-19T10:54:12.985Z,19.70
2019-02-19T10:56:41.746Z,19.70
2019-02-19T10:59:10.561Z,19.70
2019-02-19T11:01:39.283Z,19.70
2019-02-19T11:04:08.010Z,19.70
2019-02-19T11:06:38.964Z,19.70
2019-02-19T11:09:07.226Z,19.80
2019-02-19T11:11:35.947Z,19.80
2019-02-19T11:14:06.512Z,19.80
2019-02-19T11:16:35.335Z,19.80
2019-02-19T11:19:04.800Z,19.80
2019-02-19T11:21:35.497Z,19.80
2019-02-19T11:24:04.629Z,19.90
2019-02-19T11:26:33.322Z,19.80
2019-02-19T11:29:03.253Z,19.90
2019-02-19T11:31:32.947Z,19.90
2019-02-19T11:34:02.140Z,19.90
2019-02-19T11:39:00.020Z,19.90
2019-02-19T11:41:30.440Z,19.90
2019-02-19T11:44:00.011Z,20.00
2019-02-19T11:46:29.119Z,20.00
2019-02-19T11:48:58.476Z,20.00
2019-02-19T11:51:27.475Z,20.00
2019-02-19T11:53:56.629Z,20.00
2019-02-19T11:56:26.207Z,20.00
2019-02-19T11:58:55.040Z,20.10
2019-02-19T12:01:23.867Z,20.10
2019-02-19T12:03:53.104Z,20.10
2019-02-19T12:06:21.816Z,20.10
2019-02-19T12:08:51.847Z,20.10
2019-02-19T12:11:20.600Z,20.20
2019-02-19T12:13:50.035Z,20.20
2019-02-19T12:16:18.757Z,20.20
2019-02-19T12:18:47.537Z,20.20
2019-02-19T12:21:16.407Z,20.30
2019-02-19T12:23:46.004Z,20.30
2019-02-19T12:26:14.758Z,20.30
2019-02-19T12:28:44.199Z,20.30
2019-02-19T12:31:12.955Z,20.30
2019-02-19T12:33:41.776Z,20.30
2019-02-19T12:36:11.022Z,20.30
2019-02-19T12:38:39.740Z,20.30
2019-02-19T12:41:09.013Z,20.30
2019-02-19T12:43:37.707Z,20.30
2019-02-19T12:46:06.431Z,20.30
2019-02-19T12:48:37.633Z,20.30
2019-02-19T12:51:07.308Z,20.20
2019-02-19T12:53:36.478Z,20.20
2019-02-19T12:56:06.423Z,20.20
2019-02-19T12:58:35.444Z,20.20
2019-02-19T13:01:04.273Z,20.20
2019-02-19T13:03:32.974Z,20.20
2019-02-19T13:06:02.109Z,20.20
2019-02-19T13:08:30.844Z,20.20
2019-02-19T13:11:00.034Z,20.20
2019-02-19T13:13:29.317Z,20.20
2019-02-19T13:15:58.393Z,20.20
2019-02-19T13:18:27.509Z,20.10
2019-02-19T13:20:57.346Z,20.10
2019-02-19T13:23:26.464Z,20.10
2019-02-19T13:25:55.646Z,20.10
2019-02-19T13:28:24.853Z,20.10
2019-02-19T13:30:54.427Z,20.10
2019-02-19T13:33:23.432Z,20.10
2019-02-19T13:35:52.984Z,20.00
2019-02-19T13:38:22.265Z,20.00
2019-02-19T13:40:51.141Z,20.00
2019-02-19T13:43:20.016Z,19.90
2019-02-19T13:45:48.875Z,19.90
2019-02-19T13:48:18.497Z,19.90
2019-02-19T13:50:47.952Z,19.90
2019-02-19T13:54:20.010Z,19.90
2019-02-19T13:56:50.083Z,19.90
2019-02-19T13:59:19.197Z,19.90
2019-02-19T14:01:47.922Z,19.80
2019-02-19T14:04:17.871Z,19.80
2019-02-19T14:06:46.952Z,19.80
2019-02-19T14:09:16.180Z,19.80
2019-02-19T14:11:45.231Z,19.80
2019-02-19T14:14:19.405Z,19.80
2019-02-19T14:16:53.251Z,19.80
2019-02-19T14:19:33.802Z,19.70
2019-02-19T14:22:44.495Z,19.70
2019-02-19T14:25:55.305Z,19.70
2019-02-19T14:28:30.148Z,19.70
2019-02-19T14:31:04.760Z,19.70
2019-02-19T14:34:37.640Z,19.70
2019-02-19T14:37:13.003Z,19.70
2019-02-19T14:39:45.643Z,19.60
2019-02-19T14:42:20.691Z,19.60
2019-02-19T14:44:56.175Z,19.60
2019-02-19T14:47:32.027Z,19.60
2019-02-19T14:51:08.373Z,19.50
2019-02-19T14:53:44.657Z,19.50
2019-02-19T14:56:50.501Z,19.50
2019-02-19T15:00:00.448Z,19.50
2019-02-19T15:02:35.044Z,19.50
2019-02-19T15:07:16.033Z,19.40
2019-02-19T15:09:50.836Z,19.40
2019-02-19T15:13:00.139Z,19.50
2019-02-19T15:15:34.215Z,19.40
2019-02-19T15:19:09.698Z,19.40
2019-02-19T15:21:51.951Z,19.40
2019-02-19T15:24:29.435Z,19.40
2019-02-19T15:27:13.151Z,19.40
2019-02-19T15:29:48.568Z,19.40
2019-02-19T15:32:22.202Z,19.40
2019-02-19T15:35:29.152Z,19.40
2019-02-19T15:38:07.613Z,19.40
2019-02-19T15:40:48.223Z,19.30
2019-02-19T15:43:22.961Z,19.30
2019-02-19T15:47:00.003Z,19.30
2019-02-19T15:49:47.804Z,19.30
2019-02-19T15:52:16.311Z,19.20
2019-02-19T15:56:55.376Z,19.20
2019-02-19T15:59:43.809Z,19.20
2019-02-19T16:03:18.147Z,19.10
2019-02-19T16:06:11.917Z,19.10
2019-02-19T16:08:48.549Z,19.10
2019-02-19T16:11:23.189Z,19.10
2019-02-19T16:13:58.766Z,19.10
2019-02-19T16:16:47.768Z,19.00
2019-02-19T16:19:22.632Z,19.00
2019-02-19T16:21:57.178Z,19.00
2019-02-19T16:25:37.795Z,19.00
2019-02-19T16:28:15.764Z,19.00
2019-02-19T16:30:51.040Z,19.00
2019-02-19T16:35:28.101Z,19.00
2019-02-19T16:38:04.055Z,19.00
2019-02-19T16:40:38.876Z,18.90
2019-02-19T16:44:15.200Z,18.90
2019-02-19T16:46:48.643Z,18.90
2019-02-19T16:49:23.268Z,18.90
2019-02-19T16:51:59.759Z,18.90
2019-02-19T16:54:34.447Z,18.90
2019-02-19T16:57:12.508Z,18.90
2019-02-19T16:59:49.785Z,18.90
2019-02-19T17:02:30.913Z,18.80
2019-02-19T17:05:07.208Z,18.90
2019-02-19T17:07:41.004Z,18.80
2019-02-19T17:11:17.224Z,18.80
2019-02-19T17:13:58.345Z,18.90
2019-02-19T17:16:33.391Z,18.80
2019-02-19T17:19:11.441Z,18.80
2019-02-19T17:22:49.129Z,18.80
2019-02-19T17:25:30.360Z,18.80
2019-02-19T17:30:12.266Z,18.80
2019-02-19T17:32:45.479Z,18.70
2019-02-19T17:35:26.577Z,18.70
2019-02-19T17:38:00.415Z,18.70
2019-02-19T17:43:08.941Z,18.70
2019-02-19T17:45:49.628Z,18.70
2019-02-19T17:49:27.877Z,18.70
2019-02-19T17:52:09.685Z,18.70
2019-02-19T17:54:46.534Z,18.60
2019-02-19T17:57:32.282Z,18.60
2019-02-19T18:00:06.757Z,18.60
2019-02-19T18:02:45.079Z,18.60
2019-02-19T18:05:27.920Z,18.60
2019-02-19T18:08:03.728Z,18.60
2019-02-19T18:10:38.134Z,18.60
2019-02-19T18:13:11.952Z,18.60
2019-02-19T18:15:47.072Z,18.60
2019-02-19T18:18:21.960Z,18.60
2019-02-19T18:20:50.974Z,18.60
2019-02-19T18:23:20.225Z,18.60
2019-02-19T18:25:48.989Z,18.60
2019-02-19T18:28:18.104Z,18.60
2019-02-19T18:30:48.556Z,18.60
2019-02-19T18:33:17.267Z,18.60
2019-02-19T18:38:15.869Z,18.70
2019-02-19T18:40:45.945Z,18.70
2019-02-19T18:43:15.300Z,18.70
2019-02-19T18:45:44.421Z,18.70
2019-02-19T18:48:13.839Z,18.80
2019-02-19T18:50:42.953Z,18.80
2019-02-19T18:53:13.341Z,18.80
2019-02-19T18:55:42.737Z,18.90
2019-02-19T18:58:12.251Z,18.90
2019-02-19T19:00:41.360Z,18.90
2019-02-19T19:03:10.955Z,19.00
2019-02-19T19:05:40.452Z,19.00
2019-02-19T19:08:09.655Z,19.00
2019-02-19T19:10:38.515Z,19.00
2019-02-19T19:13:08.167Z,19.10
2019-02-19T19:15:37.776Z,19.10
2019-02-19T19:18:07.112Z,19.10
2019-02-19T19:20:36.684Z,19.10
2019-02-19T19:25:34.873Z,19.20
2019-02-19T19:28:04.784Z,19.30
2019-02-19T19:30:34.276Z,19.30
2019-02-19T19:33:03.293Z,19.30
2019-02-19T19:35:32.796Z,19.30
2019-02-19T19:38:01.504Z,19.40
2019-02-19T19:40:30.622Z,19.40
2019-02-19T19:42:59.643Z,19.40
2019-02-19T19:45:28.835Z,19.40
2019-02-19T19:47:57.699Z,19.50
2019-02-19T19:50:26.427Z,19.50
2019-02-19T19:52:55.445Z,19.50
2019-02-19T19:55:24.136Z,19.50
2019-02-19T19:57:52.840Z,19.60
2019-02-19T20:00:21.908Z,19.60
2019-02-19T20:02:51.302Z,19.60
2019-02-19T20:05:20.480Z,19.60
2019-02-19T20:07:49.553Z,19.60
2019-02-19T20:10:18.680Z,19.70
2019-02-19T20:12:48.689Z,19.70
2019-02-19T20:15:17.509Z,19.70
2019-02-19T20:17:46.913Z,19.70
2019-02-19T20:20:16.056Z,19.70
2019-02-19T20:22:44.824Z,19.70
2019-02-19T20:25:14.411Z,19.70
2019-02-19T20:27:43.931Z,19.70
2019-02-19T20:30:13.477Z,19.70
2019-02-19T20:32:42.478Z,19.70
2019-02-19T20:35:13.302Z,19.70
2019-02-19T20:37:42.085Z,19.70
2019-02-19T20:40:11.074Z,19.70
2019-02-19T20:42:40.245Z,19.70
2019-02-19T20:45:09.532Z,19.70
2019-02-19T20:47:39.968Z,19.60
2019-02-19T20:50:09.920Z,19.60
2019-02-19T20:52:39.321Z,19.60
2019-02-19T20:57:36.694Z,19.50
2019-02-19T21:00:06.897Z,19.50
2019-02-19T21:02:38.043Z,19.50
2019-02-19T21:05:07.713Z,19.50
2019-02-19T21:07:37.980Z,19.50
2019-02-19T21:10:09.992Z,19.40
2019-02-19T21:12:39.660Z,19.40
2019-02-19T21:15:08.908Z,19.40
2019-02-19T21:17:38.071Z,19.30
2019-02-19T21:20:07.717Z,19.30
2019-02-19T21:22:37.337Z,19.30
2019-02-19T21:25:06.935Z,19.30
2019-02-19T21:27:35.797Z,19.30
2019-02-19T21:30:04.914Z,19.30
2019-02-19T21:32:33.957Z,19.30
2019-02-19T21:35:03.506Z,19.20
2019-02-19T21:37:33.157Z,19.20
2019-02-19T21:40:02.940Z,19.20
2019-02-19T21:42:32.061Z,19.20
2019-02-19T21:45:00.763Z,19.20
2019-02-19T21:47:29.631Z,19.10
2019-02-19T21:49:58.770Z,19.10
2019-02-19T21:52:28.319Z,19.20
2019-02-19T21:54:56.528Z,19.10
